createdAt,value
2023-04-22T00:02:14.502Z,17.27
2023-04-22T00:04:42.540Z,10.83
2023-04-22T00:07:10.574Z,14.97
2023-04-22T00:09:38.721Z,16.67
2023-04-22T00:12:08.333Z,12.27
2023-04-22T00:14:36.104Z,12.07
2023-04-22T00:17:03.972Z,12.33
2023-04-22T00:19:31.967Z,9.87
2023-04-22T00:21:59.686Z,18.27
2023-04-22T00:24:27.432Z,13.93
2023-04-22T00:26:55.225Z,18.67
2023-04-22T00:29:24.287Z,10.93
2023-04-22T00:31:52.084Z,11.27
2023-04-22T00:34:19.829Z,11.37
2023-04-22T00:36:47.562Z,10.20
2023-04-22T00:39:15.815Z,13.83
2023-04-22T00:41:44.159Z,11.53
2023-04-22T00:44:12.818Z,12.97
2023-04-22T00:46:42.339Z,10.43
2023-04-22T00:49:10.222Z,13.07
2023-04-22T00:51:38.036Z,13.27
2023-04-22T00:54:06.543Z,11.70
2023-04-22T00:56:36.015Z,13.67
2023-04-22T00:59:03.994Z,11.70
2023-04-22T01:01:32.181Z,12.10
2023-04-22T01:04:01.985Z,10.17
2023-04-22T01:06:32.301Z,12.13
2023-04-22T01:09:00.156Z,15.00
2023-04-22T01:11:27.951Z,11.07
2023-04-22T01:13:56.438Z,11.33
2023-04-22T01:16:25.043Z,12.93
2023-04-22T01:18:52.954Z,9.10
2023-04-22T01:21:22.763Z,11.17
2023-04-22T01:23:52.044Z,10.40
2023-04-22T01:26:19.924Z,10.97
2023-04-22T01:28:47.824Z,11.33
2023-04-22T01:31:16.472Z,10.77
2023-04-22T01:33:45.322Z,15.13
2023-04-22T01:36:13.390Z,11.37
2023-04-22T01:38:41.316Z,9.23
2023-04-22T01:41:10.526Z,12.37
2023-04-22T01:43:39.743Z,10.07
2023-04-22T01:46:09.477Z,10.23
2023-04-22T01:48:37.701Z,10.03
2023-04-22T01:51:05.523Z,9.73
2023-04-22T01:53:33.268Z,11.33
2023-04-22T01:56:01.262Z,11.20
2023-04-22T01:58:31.474Z,16.07
2023-04-22T02:00:59.254Z,10.63
2023-04-22T02:03:27.064Z,12.63
2023-04-22T02:05:54.870Z,15.33
2023-04-22T02:08:23.192Z,12.27
2023-04-22T02:10:50.933Z,15.30
2023-04-22T02:13:18.699Z,11.30
2023-04-22T02:15:47.815Z,10.27
2023-04-22T02:18:17.936Z,10.30
2023-04-22T02:20:46.139Z,13.90
2023-04-22T02:23:14.061Z,10.60
2023-04-22T02:25:42.041Z,10.50
2023-04-22T02:28:09.885Z,13.00
2023-04-22T02:30:37.794Z,12.67
2023-04-22T02:33:06.869Z,9.83
2023-04-22T02:35:34.793Z,9.03
2023-04-22T02:38:02.592Z,11.50
2023-04-22T02:40:30.429Z,9.90
2023-04-22T02:42:58.169Z,13.03
2023-04-22T02:45:25.945Z,8.87
2023-04-22T02:47:53.736Z,10.10
2023-04-22T02:50:23.003Z,10.33
2023-04-22T02:52:51.333Z,10.97
2023-04-22T02:55:19.176Z,12.10
2023-04-22T02:57:46.949Z,14.20
2023-04-22T03:00:15.068Z,11.33
2023-04-22T03:02:42.933Z,10.77
2023-04-22T03:05:11.546Z,13.90
2023-04-22T03:07:40.620Z,10.93
2023-04-22T03:10:09.975Z,10.37
2023-04-22T03:12:37.752Z,10.77
2023-04-22T03:15:06.447Z,12.83
2023-04-22T03:17:34.743Z,12.30
2023-04-22T03:20:02.635Z,11.77
2023-04-22T03:22:30.391Z,14.50
2023-04-22T03:24:59.445Z,10.87
2023-04-22T03:27:27.270Z,9.60
2023-04-22T03:29:56.433Z,10.97
2023-04-22T03:32:24.282Z,12.73
2023-04-22T03:34:52.073Z,13.20
2023-04-22T03:37:19.800Z,11.97
2023-04-22T03:39:47.530Z,11.93
2023-04-22T03:42:16.721Z,11.40
2023-04-22T03:44:44.504Z,14.00
2023-04-22T03:47:12.275Z,13.47
2023-04-22T03:49:40.751Z,14.37
2023-04-22T03:52:08.777Z,11.43
2023-04-22T03:54:37.817Z,13.00
2023-04-22T03:57:05.642Z,13.07
2023-04-22T03:59:34.757Z,12.77
2023-04-22T04:02:02.644Z,13.87
2023-04-22T04:04:30.701Z,12.17
2023-04-22T04:06:59.513Z,21.43
2023-04-22T04:09:27.353Z,13.03
2023-04-22T04:11:55.110Z,11.03
2023-04-22T04:14:22.991Z,11.17
2023-04-22T04:16:52.381Z,13.87
2023-04-22T04:19:20.112Z,14.43
2023-04-22T04:21:47.790Z,10.73
2023-04-22T04:24:15.645Z,10.77
2023-04-22T04:26:43.388Z,13.10
2023-04-22T04:29:11.194Z,13.03
2023-04-22T04:31:39.033Z,13.17
2023-04-22T04:34:08.130Z,21.37
2023-04-22T04:36:35.869Z,11.10
2023-04-22T04:39:04.186Z,12.53
2023-04-22T04:41:31.924Z,11.93
2023-04-22T04:44:00.604Z,13.03
2023-04-22T04:46:29.652Z,14.13
2023-04-22T04:48:58.728Z,13.53
2023-04-22T04:51:27.836Z,13.80
2023-04-22T04:53:55.584Z,12.30
2023-04-22T04:56:23.680Z,18.73
2023-04-22T04:58:51.442Z,25.37
2023-04-22T05:01:19.249Z,15.80
2023-04-22T05:03:47.216Z,20.43
2023-04-22T05:06:15.079Z,10.17
2023-04-22T05:08:44.146Z,17.77
2023-04-22T05:11:11.853Z,14.17
2023-04-22T05:13:39.598Z,13.30
2023-04-22T05:16:07.689Z,12.70
2023-04-22T05:18:35.542Z,10.77
2023-04-22T05:21:04.340Z,12.00
2023-04-22T05:23:32.093Z,12.50
2023-04-22T05:26:01.216Z,10.17
2023-04-22T05:28:28.945Z,12.23
2023-04-22T05:30:56.677Z,10.57
2023-04-22T05:33:24.433Z,13.80
2023-04-22T05:35:52.429Z,12.73
2023-04-22T05:38:20.249Z,9.70
2023-04-22T05:40:47.950Z,12.20
2023-04-22T05:43:17.177Z,12.37
2023-04-22T05:45:45.008Z,13.10
2023-04-22T05:48:12.922Z,11.17
2023-04-22T05:50:40.815Z,13.20
2023-04-22T05:53:08.589Z,11.87
2023-04-22T05:55:36.407Z,11.40
2023-04-22T05:58:04.257Z,9.83
2023-04-22T06:00:33.407Z,12.97
2023-04-22T06:03:01.427Z,10.40
2023-04-22T06:05:29.499Z,13.23
2023-04-22T06:07:57.268Z,12.13
2023-04-22T06:10:25.157Z,11.60
2023-04-22T06:12:52.880Z,11.33
2023-04-22T06:15:21.457Z,11.27
2023-04-22T06:17:50.899Z,9.33
2023-04-22T06:20:18.857Z,9.75
2023-04-22T06:22:46.611Z,10.77
2023-04-22T06:25:14.350Z,8.93
2023-04-22T06:27:42.223Z,9.40
2023-04-22T06:30:12.030Z,13.00
2023-04-22T06:32:39.826Z,11.93
2023-04-22T06:35:10.154Z,13.70
2023-04-22T06:37:37.971Z,9.32
2023-04-22T06:40:06.631Z,12.48
2023-04-22T06:42:34.482Z,10.13
2023-04-22T06:45:02.241Z,10.18
2023-04-22T06:47:30.048Z,11.95
2023-04-22T06:49:58.242Z,10.68
2023-04-22T06:52:27.353Z,12.07
2023-04-22T06:54:55.214Z,10.15
2023-04-22T06:57:23.036Z,12.77
2023-04-22T06:59:50.937Z,14.35
2023-04-22T07:02:19.012Z,11.07
2023-04-22T07:04:46.762Z,10.35
2023-04-22T07:07:14.867Z,11.60
2023-04-22T07:09:44.123Z,11.15
2023-04-22T07:12:11.879Z,12.93
2023-04-22T07:14:43.399Z,9.35
2023-04-22T07:17:11.561Z,13.20
2023-04-22T07:19:40.294Z,9.07
2023-04-22T07:22:08.592Z,9.20
2023-04-22T07:24:36.325Z,11.60
2023-04-22T07:27:05.432Z,11.55
2023-04-22T07:29:33.269Z,8.65
2023-04-22T07:32:01.071Z,8.98
2023-04-22T07:34:28.824Z,13.32
2023-04-22T07:36:56.632Z,10.45
2023-04-22T07:39:24.499Z,10.55
2023-04-22T07:41:53.219Z,10.68
2023-04-22T07:44:22.317Z,8.27
2023-04-22T07:46:54.020Z,9.13
2023-04-22T07:49:21.788Z,10.95
2023-04-22T07:51:49.529Z,8.75
2023-04-22T07:54:17.275Z,7.28
2023-04-22T07:56:45.122Z,9.45
2023-04-22T07:59:12.907Z,10.75
2023-04-22T08:01:41.991Z,9.65
2023-04-22T08:04:10.221Z,9.70
2023-04-22T08:06:38.326Z,8.85
2023-04-22T08:09:06.100Z,13.88
2023-04-22T08:11:33.962Z,10.68
2023-04-22T08:14:01.702Z,14.35
2023-04-22T08:16:29.635Z,8.95
2023-04-22T08:18:59.016Z,10.65
2023-04-22T08:21:27.412Z,8.60
2023-04-22T08:23:55.293Z,7.93
2023-04-22T08:26:23.234Z,10.82
2023-04-22T08:28:51.006Z,8.20
2023-04-22T08:31:18.826Z,8.68
2023-04-22T08:33:46.556Z,9.15
2023-04-22T08:36:16.135Z,7.93
2023-04-22T08:38:44.131Z,7.13
2023-04-22T08:41:13.243Z,7.53
2023-04-22T08:43:41.176Z,8.13
2023-04-22T08:46:09.120Z,10.05
2023-04-22T08:48:38.196Z,9.68
2023-04-22T08:51:07.648Z,8.40
2023-04-22T08:53:36.770Z,7.35
2023-04-22T08:56:04.917Z,8.25
2023-04-22T08:58:35.543Z,6.45
2023-04-22T09:01:04.533Z,11.95
2023-04-22T09:03:32.534Z,7.75
2023-04-22T09:06:03.079Z,9.50
2023-04-22T09:08:31.292Z,8.25
2023-04-22T09:11:00.772Z,15.57
2023-04-22T09:13:28.569Z,7.80
2023-04-22T09:15:58.629Z,10.13
2023-04-22T09:18:27.585Z,5.88
2023-04-22T09:20:57.240Z,8.23
2023-04-22T09:23:25.381Z,5.53
2023-04-22T09:25:53.173Z,14.52
2023-04-22T09:28:22.243Z,8.32
2023-04-22T09:30:50.010Z,6.68
2023-04-22T09:33:18.255Z,7.20
2023-04-22T09:35:45.992Z,7.10
2023-04-22T09:38:14.155Z,10.30
2023-04-22T09:40:44.279Z,6.47
2023-04-22T09:43:12.574Z,5.47
2023-04-22T09:45:43.620Z,7.25
2023-04-22T09:48:14.201Z,8.18
2023-04-22T09:50:44.558Z,10.23
2023-04-22T09:53:17.002Z,5.80
2023-04-22T09:55:47.479Z,10.25
2023-04-22T09:58:16.492Z,10.98
2023-04-22T10:00:48.761Z,8.77
2023-04-22T10:03:17.168Z,6.65
2023-04-22T10:05:46.244Z,9.25
2023-04-22T10:08:15.410Z,9.30
2023-04-22T10:10:44.088Z,7.82
2023-04-22T10:13:11.956Z,4.80
2023-04-22T10:15:42.233Z,8.20
2023-04-22T10:18:13.541Z,6.28
2023-04-22T10:20:43.208Z,6.45
2023-04-22T10:23:15.335Z,6.00
2023-04-22T10:25:43.201Z,5.88
2023-04-22T10:28:12.183Z,6.90
2023-04-22T10:30:41.052Z,7.90
2023-04-22T10:33:40.542Z,6.95
2023-04-22T10:36:16.944Z,4.43
2023-04-22T10:39:18.463Z,8.32
2023-04-22T10:41:53.367Z,6.45
2023-04-22T10:44:22.424Z,7.70
2023-04-22T10:47:02.986Z,5.22
2023-04-22T10:49:32.957Z,10.27
2023-04-22T10:52:03.990Z,8.23
2023-04-22T10:54:57.878Z,5.80
2023-04-22T10:57:36.237Z,5.20
2023-04-22T11:00:51.741Z,6.93
2023-04-22T11:03:28.263Z,6.57
2023-04-22T11:06:15.932Z,7.90
2023-04-22T11:08:46.564Z,5.93
2023-04-22T11:11:14.659Z,5.45
2023-04-22T11:13:43.728Z,7.35
2023-04-22T11:16:12.160Z,6.22
2023-04-22T11:18:40.109Z,5.65
2023-04-22T11:21:09.394Z,6.43
2023-04-22T11:23:38.509Z,9.45
2023-04-22T11:26:07.435Z,7.78
2023-04-22T11:28:35.346Z,7.30
2023-04-22T11:31:05.101Z,4.80
2023-04-22T11:33:33.796Z,7.57
2023-04-22T11:36:01.741Z,9.90
2023-04-22T11:38:29.574Z,7.03
2023-04-22T11:40:58.832Z,6.10
2023-04-22T11:43:26.957Z,5.20
2023-04-22T11:45:57.029Z,6.88
2023-04-22T11:48:24.981Z,6.50
2023-04-22T11:51:10.408Z,7.03
2023-04-22T11:53:39.553Z,6.35
2023-04-22T11:56:08.786Z,7.68
2023-04-22T11:58:41.815Z,7.88
2023-04-22T12:01:14.007Z,8.65
2023-04-22T12:03:42.349Z,12.20
2023-04-22T12:06:10.562Z,8.75
2023-04-22T12:08:41.973Z,6.13
2023-04-22T12:11:12.848Z,6.85
2023-04-22T12:13:45.556Z,8.35
2023-04-22T12:16:15.223Z,10.85
2023-04-22T12:18:50.088Z,6.28
2023-04-22T12:21:20.090Z,8.27
2023-04-22T12:23:49.363Z,6.10
2023-04-22T12:26:19.720Z,8.50
2023-04-22T12:28:48.327Z,6.20
2023-04-22T12:31:16.891Z,7.47
2023-04-22T12:33:45.549Z,8.07
2023-04-22T12:36:13.714Z,7.25
2023-04-22T12:38:41.611Z,6.22
2023-04-22T12:41:09.527Z,6.20
2023-04-22T12:43:39.459Z,9.85
2023-04-22T12:46:08.294Z,7.60
2023-04-22T12:48:37.264Z,7.38
2023-04-22T12:51:05.688Z,5.80
2023-04-22T12:53:33.480Z,9.23
2023-04-22T12:56:01.303Z,6.80
2023-04-22T12:58:29.059Z,5.88
2023-04-22T13:00:58.132Z,6.68
2023-04-22T13:03:26.012Z,5.95
2023-04-22T13:05:54.031Z,6.88
2023-04-22T13:08:21.926Z,6.07
2023-04-22T13:10:49.715Z,7.00
2023-04-22T13:13:19.335Z,6.70
2023-04-22T13:15:47.966Z,8.05
2023-04-22T13:18:17.510Z,8.32
2023-04-22T13:20:45.500Z,5.68
2023-04-22T13:23:14.416Z,8.32
2023-04-22T13:25:42.198Z,6.00
2023-04-22T13:28:11.405Z,6.65
2023-04-22T13:30:39.624Z,5.72
2023-04-22T13:33:07.506Z,5.70
2023-04-22T13:35:36.797Z,10.15
2023-04-22T13:38:05.107Z,6.60
2023-04-22T13:40:32.895Z,7.40
2023-04-22T13:43:00.691Z,6.20
2023-04-22T13:45:28.580Z,7.57
2023-04-22T13:47:56.538Z,6.85
2023-04-22T13:50:24.677Z,5.18
2023-04-22T13:52:53.921Z,4.43
2023-04-22T13:55:21.747Z,4.93
2023-04-22T13:57:51.407Z,8.00
2023-04-22T14:00:20.780Z,4.70
2023-04-22T14:02:49.295Z,5.57
2023-04-22T14:05:17.776Z,6.65
2023-04-22T14:07:45.588Z,6.68
2023-04-22T14:10:16.241Z,6.32
2023-04-22T14:12:45.204Z,5.82
2023-04-22T14:15:13.244Z,6.72
2023-04-22T14:17:41.159Z,8.77
2023-04-22T14:20:11.258Z,7.75
2023-04-22T14:22:39.198Z,7.50
2023-04-22T14:25:08.187Z,5.10
2023-04-22T14:27:37.369Z,5.38
2023-04-22T14:30:06.892Z,6.07
2023-04-22T14:32:34.792Z,5.00
2023-04-22T14:35:03.113Z,4.53
2023-04-22T14:37:31.807Z,6.95
2023-04-22T14:39:59.711Z,7.00
2023-04-22T14:42:28.233Z,7.90
2023-04-22T14:44:57.772Z,6.65
2023-04-22T14:47:25.783Z,7.45
2023-04-22T14:49:53.794Z,6.10
2023-04-22T14:52:21.626Z,6.05
2023-04-22T14:54:51.797Z,10.52
2023-04-22T14:57:20.075Z,7.00
2023-04-22T14:59:47.887Z,11.35
2023-04-22T15:02:17.345Z,6.40
2023-04-22T15:04:45.582Z,5.18
2023-04-22T15:07:13.800Z,6.65
2023-04-22T15:09:41.934Z,5.30
2023-04-22T15:12:10.033Z,5.47
2023-04-22T15:14:38.020Z,5.85
2023-04-22T15:17:06.261Z,4.55
2023-04-22T15:19:35.531Z,5.35
2023-04-22T15:22:03.498Z,7.20
2023-04-22T15:24:31.379Z,6.63
2023-04-22T15:27:00.193Z,5.88
2023-04-22T15:29:28.622Z,6.07
2023-04-22T15:31:56.655Z,4.78
2023-04-22T15:34:25.221Z,7.63
2023-04-22T15:36:54.637Z,8.07
2023-04-22T15:39:22.487Z,6.43
2023-04-22T15:41:50.430Z,7.40
2023-04-22T15:44:18.257Z,6.50
2023-04-22T15:46:46.973Z,4.63
2023-04-22T15:49:15.631Z,5.50
2023-04-22T15:51:43.436Z,6.55
2023-04-22T15:54:13.249Z,5.85
2023-04-22T15:56:41.077Z,6.32
2023-04-22T15:59:09.113Z,7.50
2023-04-22T16:01:38.710Z,5.38
2023-04-22T16:04:08.328Z,7.25
2023-04-22T16:06:37.674Z,6.90
2023-04-22T16:09:05.877Z,4.53
2023-04-22T16:11:34.988Z,7.07
2023-04-22T16:14:02.795Z,8.57
2023-04-22T16:16:30.987Z,5.47
2023-04-22T16:18:59.688Z,6.43
2023-04-22T16:21:28.721Z,4.68
2023-04-22T16:23:56.516Z,5.50
2023-04-22T16:26:24.341Z,7.80
2023-04-22T16:28:54.879Z,4.97
2023-04-22T16:31:23.583Z,9.18
2023-04-22T16:33:52.107Z,4.80
2023-04-22T16:36:19.991Z,6.13
2023-04-22T16:38:47.749Z,5.05
2023-04-22T16:41:15.915Z,11.30
2023-04-22T16:43:43.920Z,5.38
2023-04-22T16:46:13.366Z,5.78
2023-04-22T16:48:41.238Z,5.63
2023-04-22T16:51:09.050Z,5.78
2023-04-22T16:53:36.932Z,7.50
2023-04-22T16:56:05.914Z,6.53
2023-04-22T16:58:33.696Z,10.07
2023-04-22T17:01:01.499Z,8.05
2023-04-22T17:03:31.031Z,4.38
2023-04-22T17:05:58.948Z,5.80
2023-04-22T17:08:26.887Z,6.22
2023-04-22T17:10:54.686Z,6.28
2023-04-22T17:13:22.508Z,6.38
2023-04-22T17:15:50.437Z,6.38
2023-04-22T17:18:18.201Z,5.82
2023-04-22T17:20:49.220Z,8.77
2023-04-22T17:23:18.196Z,5.78
2023-04-22T17:26:45.280Z,6.43
2023-04-22T17:29:13.084Z,6.82
2023-04-22T17:31:41.138Z,7.05
2023-04-22T17:34:08.916Z,6.90
2023-04-22T17:36:38.105Z,8.35
2023-04-22T17:39:06.023Z,9.20
2023-04-22T17:41:33.886Z,10.73
2023-04-22T17:44:01.652Z,9.13
2023-04-22T17:46:29.435Z,11.13
2023-04-22T17:48:57.474Z,12.52
2023-04-22T17:51:25.264Z,9.35
2023-04-22T17:53:56.874Z,10.07
2023-04-22T17:56:25.127Z,10.55
2023-04-22T17:58:53.270Z,9.13
2023-04-22T18:01:21.138Z,7.88
2023-04-22T18:03:49.244Z,9.00
2023-04-22T18:06:17.153Z,10.88
2023-04-22T18:08:44.935Z,9.50
2023-04-22T18:11:14.186Z,12.38
2023-04-22T18:13:42.075Z,12.40
2023-04-22T18:16:09.997Z,22.10
2023-04-22T18:18:38.824Z,15.82
2023-04-22T18:21:06.702Z,13.43
2023-04-22T18:23:35.140Z,11.25
2023-04-22T18:26:09.534Z,15.13
2023-04-22T18:28:40.149Z,20.95
2023-04-22T18:31:08.182Z,23.00
2023-04-22T18:33:36.484Z,14.10
2023-04-22T18:36:04.978Z,10.32
2023-04-22T18:38:32.997Z,14.35
2023-04-22T18:41:00.764Z,14.55
2023-04-22T18:43:28.566Z,9.25
2023-04-22T18:45:57.682Z,12.05
2023-04-22T18:48:25.765Z,11.27
2023-04-22T18:50:53.610Z,14.80
2023-04-22T18:53:21.354Z,15.80
2023-04-22T18:55:49.180Z,17.02
2023-04-22T18:58:16.967Z,19.63
2023-04-22T19:00:44.898Z,15.95
2023-04-22T19:03:14.193Z,13.55
2023-04-22T19:05:42.113Z,18.48
2023-04-22T19:08:09.925Z,13.90
2023-04-22T19:10:38.210Z,11.43
2023-04-22T19:13:08.049Z,12.85
2023-04-22T19:15:39.369Z,8.93
2023-04-22T19:18:07.352Z,12.10
2023-04-22T19:20:37.098Z,12.27
2023-04-22T19:23:04.988Z,25.15
2023-04-22T19:25:34.117Z,38.75
2023-04-22T19:28:01.873Z,31.77
2023-04-22T19:30:29.712Z,22.38
2023-04-22T19:32:57.599Z,22.17
2023-04-22T19:35:27.234Z,19.55
2023-04-22T19:37:56.400Z,23.63
2023-04-22T19:40:24.379Z,19.70
2023-04-22T19:42:52.244Z,44.58
2023-04-22T19:45:20.028Z,35.97
2023-04-22T19:47:48.218Z,34.38
2023-04-22T19:50:16.621Z,23.00
2023-04-22T19:52:47.111Z,19.17
2023-04-22T19:55:17.424Z,21.10
2023-04-22T19:57:45.572Z,20.48
2023-04-22T20:00:14.426Z,20.55
2023-04-22T20:02:42.846Z,17.85
2023-04-22T20:05:11.494Z,17.27
2023-04-22T20:07:40.893Z,19.02
2023-04-22T20:10:09.973Z,16.42
2023-04-22T20:12:39.491Z,15.00
2023-04-22T20:15:08.977Z,18.95
2023-04-22T20:17:39.168Z,18.50
2023-04-22T20:20:12.896Z,15.77
2023-04-22T20:22:41.569Z,23.05
2023-04-22T20:25:13.747Z,20.58
2023-04-22T20:27:43.533Z,19.02
2023-04-22T20:30:13.615Z,31.52
2023-04-22T20:32:41.943Z,28.23
2023-04-22T20:35:14.799Z,40.08
2023-04-22T20:37:43.710Z,49.88
2023-04-22T20:40:15.144Z,65.90
2023-04-22T20:42:44.413Z,33.30
2023-04-22T20:45:15.603Z,55.25
2023-04-22T20:47:44.129Z,47.95
2023-04-22T20:50:13.097Z,42.28
2023-04-22T20:52:41.169Z,60.03
2023-04-22T20:55:09.545Z,47.80
2023-04-22T20:57:37.655Z,50.80
2023-04-22T21:00:08.586Z,46.47
2023-04-22T21:02:37.329Z,62.85
2023-04-22T21:05:06.756Z,53.53
2023-04-22T21:07:35.966Z,46.55
2023-04-22T21:10:04.234Z,41.47
2023-04-22T21:12:33.098Z,40.35
2023-04-22T21:15:01.728Z,38.75
2023-04-22T21:17:32.612Z,53.58
2023-04-22T21:20:02.584Z,53.88
2023-04-22T21:22:30.944Z,47.42
2023-04-22T21:24:59.813Z,46.10
2023-04-22T21:27:28.092Z,44.65
2023-04-22T21:29:57.030Z,36.67
2023-04-22T21:32:24.832Z,33.67
2023-04-22T21:34:53.964Z,90.50
2023-04-22T21:37:21.798Z,48.83
2023-04-22T21:39:49.538Z,35.80
2023-04-22T21:42:17.267Z,23.38
2023-04-22T21:44:49.686Z,16.02
2023-04-22T21:47:17.767Z,14.48
2023-04-22T21:49:46.979Z,25.58
2023-04-22T21:52:16.362Z,16.98
2023-04-22T21:54:44.281Z,21.05
2023-04-22T21:57:12.168Z,16.42
2023-04-22T21:59:39.928Z,11.38
2023-04-22T22:02:07.662Z,12.30
2023-04-22T22:04:36.457Z,12.32
2023-04-22T22:07:04.279Z,11.93
2023-04-22T22:09:33.364Z,11.88
2023-04-22T22:12:01.798Z,15.00
2023-04-22T22:14:29.578Z,15.10
2023-04-22T22:16:57.449Z,10.73
2023-04-22T22:19:27.764Z,11.73
2023-04-22T22:21:55.745Z,11.88
2023-04-22T22:24:23.841Z,12.70
2023-04-22T22:26:52.919Z,13.23
2023-04-22T22:29:20.744Z,13.70
2023-04-22T22:31:48.533Z,10.80
2023-04-22T22:34:16.306Z,12.40
2023-04-22T22:36:44.052Z,7.88
2023-04-22T22:39:14.418Z,10.23
2023-04-22T22:41:43.863Z,13.65
2023-04-22T22:44:13.262Z,9.90
2023-04-22T22:46:41.298Z,8.70
2023-04-22T22:49:09.087Z,14.30
2023-04-22T22:51:37.535Z,10.10
2023-04-22T22:54:06.491Z,8.15
2023-04-22T22:56:34.473Z,10.73
2023-04-22T22:59:02.263Z,8.73
2023-04-22T23:01:31.464Z,10.25
2023-04-22T23:03:59.657Z,8.30
2023-04-22T23:06:28.130Z,7.82
2023-04-22T23:08:55.886Z,10.07
2023-04-22T23:11:23.619Z,8.02
2023-04-22T23:13:51.384Z,7.25
2023-04-22T23:16:19.509Z,10.38
2023-04-22T23:18:49.283Z,7.50
2023-04-22T23:21:17.280Z,9.90
2023-04-22T23:23:45.715Z,9.05
2023-04-22T23:26:14.004Z,9.85
2023-04-22T23:28:42.181Z,9.05
2023-04-22T23:31:11.002Z,8.95
2023-04-22T23:33:41.978Z,9.00
2023-04-22T23:36:14.028Z,8.85
2023-04-22T23:38:41.793Z,8.02
2023-04-22T23:41:09.545Z,7.38
2023-04-22T23:43:37.444Z,8.55
2023-04-22T23:46:05.500Z,8.95
2023-04-22T23:48:33.362Z,11.63
2023-04-22T23:51:01.242Z,9.13
2023-04-22T23:53:30.358Z,10.20
2023-04-22T23:55:58.654Z,8.68
2023-04-22T23:58:26.724Z,11.27
